Date,TemperatureHighF,TemperatureAvgF,TemperatureLowF,DewpointHighF,DewpointAvgF,DewpointLowF,HumidityHigh,HumidityAvg,HumidityLow,PressureMaxIn,PressureMinIn,WindSpeedMaxMPH,WindSpeedAvgMPH,GustSpeedMaxMPH,PrecipitationSumIn
2013-3-1,19.0,9.4,3.9,9.9,4.8,1.1,91,82,67,30.06,29.55,3,0,0,0.00
2013-3-2,22.5,5.4,-4.2,11.5,1.0,-7.3,92,82,59,30.23,30.07,3,0,0,0.00
2013-3-3,20.7,4.0,-7.2,12.0,-0.4,-11.0,90,82,67,30.51,30.24,3,0,0,0.00
2013-3-4,27.7,8.6,-6.3,16.4,3.6,-10.1,90,81,60,30.56,30.36,3,0,0,0.00
2013-3-5,32.0,15.9,6.6,17.3,9.9,4.1,92,78,52,30.36,30.01,2,0,0,0.00
2013-3-6,20.1,8.2,0.9,8.1,2.9,-2.0,91,79,59,30.02,29.94,3,0,0,0.00
2013-3-7,40.3,21.5,1.9,20.6,11.7,-1.4,91,69,42,29.93,29.47,5,1,0,0.04
2013-3-8,45.3,31.3,20.5,25.5,20.4,14.4,87,66,43,29.70,29.53,4,1,0,0.10
2013-3-9,39.7,26.1,16.2,24.4,19.0,12.3,89,75,53,30.08,29.70,4,0,0,0.02
2013-3-10,29.3,19.4,4.8,24.0,13.7,1.3,94,79,56,30.39,30.08,8,1,0,0.00
2013-3-11,24.8,10.9,0.9,13.3,5.2,-2.5,92,78,61,30.65,30.40,4,1,0,0.00
2013-3-12,24.8,7.5,-5.4,6.0,-1.0,-9.0,90,70,41,30.67,30.41,4,1,0,0.00
2013-3-13,16.5,1.6,-10.5,-1.5,-10.3,-17.4,85,59,34,30.42,30.31,17,5,0,0.00
2013-3-14,16.9,5.4,-4.9,-6.0,-12.7,-19.5,49,42,34,30.32,30.23,14,7,0,0.00
2013-3-15,23.4,9.9,-6.2,-4.5,-10.0,-16.4,63,41,24,30.25,30.00,12,4,0,0.00
2013-3-16,26.4,12.5,2.3,2.7,-4.2,-10.0,76,48,34,30.25,30.06,7,2,0,0.00
2013-3-17,16.7,4.1,-8.0,-0.2,-4.9,-12.2,87,68,46,30.38,30.22,4,1,0,0.00
2013-3-18,18.7,4.3,-6.3,1.4,-4.6,-10.3,86,68,44,30.22,30.06,5,1,0,0.00
2013-3-19,17.2,3.7,-8.3,-0.1,-7.2,-12.5,81,62,37,30.22,30.09,6,2,0,0.00
2013-3-20,11.8,-1.2,-13.5,-2.2,-9.3,-18.1,81,69,51,30.11,29.98,5,1,0,0.00
2013-3-21,24.6,10.4,-0.6,10.6,2.2,-4.3,85,70,46,30.19,30.05,3,1,0,0.00
2013-3-22,33.8,20.6,9.3,12.1,5.9,0.3,75,54,37,30.08,29.73,7,2,0,0.00
2013-3-23,21.9,3.2,-11.4,16.5,-6.1,-15.7,83,66,42,30.13,29.76,8,3,0,0.00
2013-3-24,15.3,-0.0,-16.1,3.1,-7.8,-20.6,84,71,42,30.12,29.83,3,1,0,0.00
2013-3-25,16.0,6.6,1.6,4.1,-0.2,-4.3,84,73,56,29.83,29.69,5,0,0,0.00
2013-3-26,7.5,-0.6,-17.5,-4.5,-10.4,-21.5,82,64,44,30.28,29.84,9,3,0,0.00
2013-3-27,14.5,-6.2,-24.9,-5.9,-15.9,-29.7,82,64,37,30.35,30.19,4,1,0,0.00
2013-3-28,32.9,9.0,-15.0,11.4,-3.0,-19.4,83,62,33,30.19,29.93,3,1,0,0.04
2013-3-29,45.3,27.2,10.8,18.7,12.5,5.8,80,57,32,29.98,29.91,4,1,0,0.01
2013-3-30,40.1,23.9,7.2,19.9,12.6,4.2,88,64,40,30.27,29.98,4,0,0,0.00
2013-3-31,42.4,31.2,18.7,27.9,21.6,13.6,90,68,48,30.32,30.21,5,1,0,0.00